Time;durP1;ratioP1;P1;durP2;ratioP2;P2;SDS_P1;SDS_P2;PMS_P1;PMS_P2;Temp;Humidity;BMP_temperature;BMP_pressure;BME280_temperature;BME280_humidity;BME280_pressure;Samples;Min_cycle;Max_cycle;Signal;HPM_P1;HPM_P2
2023/12/06 00:03:06;;;;;;;32.05;14.95;;;2.30;99.90;;;;;;7347955;32;20179;-56
2023/12/06 00:07:08;;;;;;;29.85;13.98;;;2.30;99.90;;;;;;7351640;32;20194;-56
2023/12/06 00:11:10;;;;;;;29.77;14.30;;;2.40;99.90;;;;;;7351202;32;20190;-55
2023/12/06 00:15:12;;;;;;;28.55;13.73;;;2.40;99.90;;;;;;7346781;32;20193;-56
2023/12/06 00:19:13;;;;;;;30.10;15.15;;;2.40;99.90;;;;;;7351323;32;20104;-55
2023/12/06 00:23:15;;;;;;;30.20;14.60;;;2.40;99.90;;;;;;7347964;32;20353;-55
2023/12/06 00:27:17;;;;;;;26.42;13.77;;;2.40;99.90;;;;;;7347443;32;20271;-56
2023/12/06 00:31:19;;;;;;;28.75;14.13;;;2.40;99.90;;;;;;7340127;32;20548;-55
2023/12/06 00:35:21;;;;;;;29.10;15.10;;;2.40;99.90;;;;;;7348726;32;20890;-55
2023/12/06 00:39:23;;;;;;;28.27;14.52;;;2.40;99.90;;;;;;7353061;32;20114;-55
2023/12/06 00:43:24;;;;;;;28.92;14.87;;;2.40;99.90;;;;;;7347191;32;20099;-55
2023/12/06 00:47:26;;;;;;;28.42;15.55;;;2.40;99.90;;;;;;7348940;32;20512;-56
2023/12/06 00:51:29;;;;;;;33.50;15.82;;;2.40;99.90;;;;;;7353057;32;20095;-55
2023/12/06 00:55:31;;;;;;;31.77;16.35;;;2.30;99.90;;;;;;7345191;32;20139;-55
2023/12/06 00:59:33;;;;;;;34.42;16.75;;;2.20;99.90;;;;;;7351908;32;20099;-55
2023/12/06 01:03:35;;;;;;;38.28;17.77;;;2.20;99.90;;;;;;7350886;32;20122;-56
2023/12/06 01:07:36;;;;;;;38.95;18.02;;;2.20;99.90;;;;;;7355076;32;20210;-56
2023/12/06 01:11:38;;;;;;;42.53;19.73;;;2.10;99.90;;;;;;7352819;32;20100;-55
2023/12/06 01:15:40;;;;;;;41.35;19.23;;;2.00;99.90;;;;;;7351000;32;20250;-55
2023/12/06 01:19:42;;;;;;;45.47;19.37;;;2.10;99.90;;;;;;7347769;32;20612;-57
2023/12/06 01:23:44;;;;;;;45.65;19.92;;;2.20;99.90;;;;;;7347979;32;20213;-55
2023/12/06 01:27:45;;;;;;;43.40;20.37;;;2.20;99.90;;;;;;7352450;32;20152;-55
2023/12/06 01:31:47;;;;;;;52.47;23.55;;;2.10;99.90;;;;;;7344975;32;20187;-56
2023/12/06 01:35:49;;;;;;;51.58;22.87;;;2.10;99.90;;;;;;7348496;32;20453;-56
2023/12/06 01:39:51;;;;;;;47.58;21.42;;;2.10;99.90;;;;;;7351534;32;20149;-55
2023/12/06 01:43:53;;;;;;;46.92;22.60;;;2.10;99.90;;;;;;7347442;32;20498;-54
2023/12/06 01:47:55;;;;;;;52.97;22.73;;;2.10;99.90;;;;;;7345913;32;20116;-56
2023/12/06 01:51:57;;;;;;;61.40;25.90;;;2.20;99.90;;;;;;7352616;32;20251;-56
2023/12/06 01:56:00;;;;;;;60.92;26.45;;;2.20;99.90;;;;;;7353170;32;20152;-55
2023/12/06 02:00:04;;;;;;;63.05;28.05;;;2.20;99.90;;;;;;7348749;32;20173;-56
2023/12/06 02:04:05;;;;;;;62.05;26.48;;;2.10;99.90;;;;;;7353082;32;20099;-56
2023/12/06 02:08:08;;;;;;;64.75;27.05;;;2.10;99.90;;;;;;7349842;32;20119;-56
2023/12/06 02:12:09;;;;;;;64.50;29.40;;;2.00;99.90;;;;;;7348855;32;20217;-55
2023/12/06 02:16:11;;;;;;;64.43;28.48;;;2.00;99.90;;;;;;7346594;32;20205;-55
2023/12/06 02:20:13;;;;;;;63.72;27.92;;;2.00;99.90;;;;;;7348169;32;20736;-56
2023/12/06 02:24:17;;;;;;;70.43;28.67;;;2.00;99.90;;;;;;7353743;32;20107;-56
2023/12/06 02:28:18;;;;;;;70.72;30.62;;;1.90;99.90;;;;;;7348301;32;20526;-56
2023/12/06 02:32:20;;;;;;;74.97;30.98;;;2.00;99.90;;;;;;7350203;32;20271;-56
2023/12/06 02:36:23;;;;;;;70.28;31.15;;;1.90;99.90;;;;;;7334576;32;20164;-56
2023/12/06 02:40:27;;;;;;;66.68;31.00;;;2.00;99.90;;;;;;7346670;32;20226;-57
2023/12/06 02:44:29;;;;;;;64.47;31.12;;;2.00;99.90;;;;;;7343413;32;20103;-55
2023/12/06 02:48:30;;;;;;;73.85;33.17;;;1.90;99.90;;;;;;7346752;32;20627;-56
2023/12/06 02:52:32;;;;;;;77.28;34.45;;;1.90;99.90;;;;;;7345587;32;20481;-56
2023/12/06 02:56:35;;;;;;;68.45;31.27;;;1.90;99.90;;;;;;7343115;32;20106;-56
2023/12/06 03:00:36;;;;;;;64.70;31.52;;;1.90;99.90;;;;;;7350071;32;20143;-56
2023/12/06 03:04:40;;;;;;;71.45;34.40;;;1.90;99.90;;;;;;7352002;32;20197;-57
2023/12/06 03:08:42;;;;;;;61.55;30.42;;;1.80;99.90;;;;;;7348709;32;20248;-55
2023/12/06 03:12:44;;;;;;;62.65;30.55;;;1.90;99.90;;;;;;7342161;32;20216;-56
2023/12/06 03:16:45;;;;;;;64.90;31.42;;;1.80;99.90;;;;;;7345956;32;20122;-55
2023/12/06 03:20:47;;;;;;;65.28;31.33;;;1.70;99.90;;;;;;7349702;32;20584;-55
2023/12/06 03:24:49;;;;;;;66.35;31.67;;;1.70;99.90;;;;;;7344017;32;21681;-56
2023/12/06 03:28:51;;;;;;;63.45;31.48;;;1.70;99.90;;;;;;7351173;32;20298;-54
2023/12/06 03:32:52;;;;;;;61.33;30.40;;;1.70;99.90;;;;;;7338932;32;20111;-56
2023/12/06 03:36:54;;;;;;;59.47;31.00;;;1.60;99.90;;;;;;7346263;32;20173;-55
2023/12/06 03:40:56;;;;;;;64.18;29.90;;;1.70;99.90;;;;;;7347646;32;20099;-55
2023/12/06 03:44:58;;;;;;;59.88;31.25;;;1.70;99.90;;;;;;7342842;32;20107;-56
2023/12/06 03:49:01;;;;;;;58.50;30.12;;;1.60;99.90;;;;;;7342275;32;20168;-56
2023/12/06 03:53:03;;;;;;;58.35;30.75;;;1.60;99.90;;;;;;7345857;32;20206;-54
2023/12/06 03:57:05;;;;;;;57.67;30.45;;;1.60;99.90;;;;;;7344196;32;20222;-56
2023/12/06 04:01:07;;;;;;;56.95;30.92;;;1.70;99.90;;;;;;7343999;32;20129;-57
2023/12/06 04:05:09;;;;;;;54.97;32.05;;;1.70;99.90;;;;;;7347225;32;20466;-56
2023/12/06 04:09:11;;;;;;;53.30;30.60;;;1.70;99.90;;;;;;7345386;32;20777;-56
2023/12/06 04:13:13;;;;;;;60.03;31.65;;;1.80;99.90;;;;;;7339441;32;20099;-56
2023/12/06 04:17:15;;;;;;;55.97;31.00;;;1.80;99.90;;;;;;7343399;32;20111;-56
2023/12/06 04:21:17;;;;;;;55.00;31.42;;;1.80;99.90;;;;;;7342792;32;20107;-56
2023/12/06 04:25:19;;;;;;;53.30;29.60;;;1.80;99.90;;;;;;7350624;32;20095;-55
2023/12/06 04:29:21;;;;;;;56.83;30.05;;;1.80;99.90;;;;;;7351474;32;20134;-55
2023/12/06 04:33:22;;;;;;;54.47;30.75;;;1.90;99.90;;;;;;7348491;32;20600;-56
2023/12/06 04:37:24;;;;;;;53.65;29.55;;;2.00;99.90;;;;;;7351002;32;20182;-55
2023/12/06 04:41:27;;;;;;;53.22;29.73;;;2.00;99.90;;;;;;7354742;32;20091;-55
2023/12/06 04:45:28;;;;;;;55.95;29.37;;;2.00;99.90;;;;;;7346282;32;20091;-56
2023/12/06 04:49:30;;;;;;;51.37;27.98;;;2.10;99.90;;;;;;7349252;32;20475;-56
2023/12/06 04:53:32;;;;;;;48.60;27.17;;;2.00;99.90;;;;;;7350096;32;20940;-55
2023/12/06 04:57:34;;;;;;;47.28;27.52;;;2.00;99.90;;;;;;7350161;32;20192;-55
2023/12/06 05:01:35;;;;;;;48.60;26.45;;;2.10;99.90;;;;;;7348723;32;20096;-55
2023/12/06 05:05:37;;;;;;;48.78;27.55;;;2.10;99.90;;;;;;7349093;32;20119;-56
2023/12/06 05:09:39;;;;;;;49.33;27.25;;;2.00;99.90;;;;;;7352128;32;20119;-56
2023/12/06 05:13:41;;;;;;;50.35;27.10;;;2.20;99.90;;;;;;7346755;32;20856;-56
2023/12/06 05:17:43;;;;;;;47.55;26.58;;;2.20;99.90;;;;;;7348261;32;20100;-56
2023/12/06 05:21:45;;;;;;;50.47;26.65;;;2.20;99.90;;;;;;7355098;32;20446;-55
2023/12/06 05:25:46;;;;;;;47.90;25.85;;;2.30;99.90;;;;;;7346321;32;20111;-56
2023/12/06 05:29:48;;;;;;;48.60;26.05;;;2.30;99.90;;;;;;7347833;32;20229;-55
2023/12/06 05:33:50;;;;;;;55.00;26.20;;;2.40;99.90;;;;;;7349609;32;20172;-55
2023/12/06 05:37:52;;;;;;;52.38;26.98;;;2.30;99.90;;;;;;7349422;32;20650;-56
2023/12/06 05:41:53;;;;;;;50.92;26.27;;;2.40;99.90;;;;;;7348602;32;20498;-56
2023/12/06 05:45:55;;;;;;;49.70;26.23;;;2.40;99.90;;;;;;7348037;32;20104;-55
2023/12/06 05:49:57;;;;;;;46.88;25.42;;;2.50;99.90;;;;;;7349857;32;20118;-55
2023/12/06 05:53:59;;;;;;;52.13;26.33;;;2.50;99.90;;;;;;7349589;32;20512;-54
2023/12/06 05:58:00;;;;;;;51.92;26.62;;;2.50;99.90;;;;;;7348992;32;20537;-55
2023/12/06 06:02:02;;;;;;;50.53;26.50;;;2.60;99.90;;;;;;7344938;32;20609;-55
2023/12/06 06:06:06;;;;;;;54.15;27.15;;;2.50;99.90;;;;;;7348496;32;20096;-55
2023/12/06 06:10:08;;;;;;;48.08;25.50;;;2.60;99.90;;;;;;7347812;32;20244;-56
2023/12/06 06:14:10;;;;;;;47.55;26.30;;;2.60;99.90;;;;;;7349283;32;20103;-55
2023/12/06 06:18:12;;;;;;;48.28;26.50;;;2.50;99.90;;;;;;7347819;32;20228;-55
2023/12/06 06:22:13;;;;;;;49.85;25.30;;;2.60;99.90;;;;;;7347075;32;20103;-55
2023/12/06 06:26:16;;;;;;;45.65;24.55;;;2.70;99.90;;;;;;7345882;32;20246;-55
2023/12/06 06:30:18;;;;;;;51.03;26.12;;;2.70;99.90;;;;;;7345680;32;20174;-55
2023/12/06 06:34:20;;;;;;;50.30;26.23;;;2.70;99.90;;;;;;7351100;32;20522;-55
2023/12/06 06:38:22;;;;;;;48.13;26.55;;;2.70;99.90;;;;;;7344653;32;20206;-55
2023/12/06 06:42:24;;;;;;;46.72;25.00;;;2.70;99.90;;;;;;7340038;32;20181;-55
2023/12/06 06:46:25;;;;;;;45.63;25.88;;;2.70;99.90;;;;;;7345831;32;20103;-56
2023/12/06 06:50:27;;;;;;;45.78;24.87;;;2.70;99.90;;;;;;7341436;32;20332;-55
2023/12/06 06:54:29;;;;;;;47.67;26.27;;;2.70;99.90;;;;;;7344842;32;20243;-56
2023/12/06 06:58:31;;;;;;;44.03;25.30;;;2.80;99.90;;;;;;7350955;32;20151;-55
2023/12/06 07:02:33;;;;;;;52.42;29.58;;;2.90;99.90;;;;;;7348314;32;20119;-55
2023/12/06 07:06:35;;;;;;;42.88;25.40;;;2.90;99.90;;;;;;7345063;32;20230;-55
2023/12/06 07:10:38;;;;;;;45.53;26.30;;;2.80;99.90;;;;;;7340759;32;20099;-56
2023/12/06 07:14:40;;;;;;;47.65;27.77;;;2.80;99.90;;;;;;7341663;32;20317;-56
2023/12/06 07:18:43;;;;;;;44.92;27.35;;;2.80;99.90;;;;;;7342204;32;20350;-55
2023/12/06 07:22:45;;;;;;;44.25;25.70;;;2.90;99.90;;;;;;7348271;32;20104;-56
2023/12/06 07:26:47;;;;;;;48.00;27.35;;;2.90;99.90;;;;;;7343526;32;20277;-57
2023/12/06 07:30:49;;;;;;;46.10;27.17;;;2.90;99.90;;;;;;7335615;32;20099;-57
2023/12/06 07:34:51;;;;;;;53.65;28.35;;;2.90;99.90;;;;;;7343278;32;20118;-57
2023/12/06 07:38:56;;;;;;;45.53;26.75;;;3.00;99.90;;;;;;7341842;32;20103;-57
2023/12/06 07:42:58;;;;;;;53.20;28.25;;;3.00;99.90;;;;;;7348506;32;20103;-57
2023/12/06 07:47:00;;;;;;;48.15;28.55;;;3.00;99.90;;;;;;7343111;32;20102;-57
2023/12/06 07:51:02;;;;;;;47.72;27.55;;;3.10;99.90;;;;;;7341962;32;20216;-57
2023/12/06 07:55:06;;;;;;;42.47;26.85;;;3.10;99.90;;;;;;7336983;32;20688;-57
2023/12/06 07:59:08;;;;;;;42.75;25.80;;;3.00;99.90;;;;;;7352886;32;20103;-57
2023/12/06 08:03:10;;;;;;;39.95;25.85;;;3.10;99.90;;;;;;7347499;32;20107;-57
2023/12/06 08:07:12;;;;;;;42.05;26.45;;;3.10;99.90;;;;;;7351567;32;20099;-57
2023/12/06 08:11:13;;;;;;;39.58;25.67;;;3.10;99.90;;;;;;7346930;32;20100;-57
2023/12/06 08:15:15;;;;;;;39.50;25.55;;;3.20;99.90;;;;;;7342156;32;20180;-57
2023/12/06 08:19:17;;;;;;;37.83;24.77;;;3.20;99.90;;;;;;7343400;32;20197;-56
2023/12/06 08:23:21;;;;;;;38.17;26.05;;;3.30;99.90;;;;;;7346474;32;20484;-57
2023/12/06 08:27:27;;;;;;;38.97;24.42;;;3.30;99.90;;;;;;7345019;32;20211;-57
2023/12/06 08:31:29;;;;;;;33.20;22.92;;;3.30;99.90;;;;;;7346083;32;20668;-57
2023/12/06 08:35:31;;;;;;;35.75;23.25;;;3.30;99.90;;;;;;7346838;32;20127;-56
2023/12/06 08:39:34;;;;;;;37.03;23.87;;;3.30;99.90;;;;;;7344289;32;20513;-57
2023/12/06 08:43:37;;;;;;;31.45;22.33;;;3.30;99.90;;;;;;7344622;32;20298;-56
2023/12/06 08:47:42;;;;;;;36.35;23.12;;;3.40;99.90;;;;;;7345385;32;20190;-56
2023/12/06 08:51:44;;;;;;;33.45;22.17;;;3.40;99.90;;;;;;7348138;32;20126;-55
2023/12/06 08:55:46;;;;;;;34.83;22.05;;;3.40;99.90;;;;;;7347977;32;20508;-58
2023/12/06 08:59:48;;;;;;;33.95;22.77;;;3.40;99.90;;;;;;7347012;32;20111;-56
2023/12/06 09:03:50;;;;;;;34.50;20.77;;;3.50;99.90;;;;;;7340802;32;20095;-57
2023/12/06 09:07:52;;;;;;;39.28;22.33;;;3.50;99.90;;;;;;7345134;32;20736;-58
2023/12/06 09:11:54;;;;;;;37.70;21.92;;;3.50;99.90;;;;;;7345749;32;20178;-56
2023/12/06 09:15:55;;;;;;;32.20;21.73;;;3.60;99.90;;;;;;7336427;32;20106;-57
2023/12/06 09:19:57;;;;;;;33.00;22.30;;;3.60;99.90;;;;;;7346739;32;20916;-56
2023/12/06 09:23:59;;;;;;;33.33;21.95;;;3.70;99.90;;;;;;7338921;32;20213;-55
2023/12/06 09:28:03;;;;;;;31.00;21.60;;;3.70;99.90;;;;;;7345311;32;20171;-60
2023/12/06 09:32:05;;;;;;;31.62;22.08;;;3.70;99.90;;;;;;7346128;32;20557;-56
2023/12/06 09:36:07;;;;;;;32.45;21.27;;;3.70;99.90;;;;;;7345788;32;20235;-58
2023/12/06 09:40:10;;;;;;;30.77;21.45;;;3.80;99.90;;;;;;7345854;32;20731;-56
2023/12/06 09:44:12;;;;;;;31.17;21.70;;;3.80;99.90;;;;;;7350351;32;20095;-55
2023/12/06 09:48:14;;;;;;;34.63;22.52;;;3.90;99.90;;;;;;7347179;32;20135;-55
2023/12/06 09:52:21;;;;;;;28.98;21.65;;;3.90;99.90;;;;;;7344288;32;20114;-56
2023/12/06 09:56:24;;;;;;;39.53;21.73;;;3.90;99.90;;;;;;7350783;32;20198;-58
2023/12/06 10:00:26;;;;;;;33.03;21.85;;;3.90;99.90;;;;;;7347437;32;20182;-58
2023/12/06 10:04:28;;;;;;;31.23;22.52;;;4.00;99.90;;;;;;7348776;32;20240;-56
2023/12/06 10:08:34;;;;;;;30.42;22.17;;;4.00;99.90;;;;;;7348895;32;20119;-56
2023/12/06 10:12:57;;;;;;;40.35;23.25;;;4.00;99.90;;;;;;7348415;32;20129;-56
2023/12/06 10:16:59;;;;;;;33.42;22.27;;;4.10;99.90;;;;;;7343550;32;20198;-56
2023/12/06 10:21:01;;;;;;;34.15;22.35;;;4.10;99.90;;;;;;7331367;32;20306;-57
2023/12/06 10:25:06;;;;;;;33.33;22.05;;;4.20;99.90;;;;;;7343217;32;20268;-56
2023/12/06 10:29:08;;;;;;;29.98;21.87;;;4.10;99.90;;;;;;7348241;32;20842;-57
2023/12/06 10:33:12;;;;;;;30.88;21.25;;;4.10;99.90;;;;;;7349119;32;20186;-56
2023/12/06 10:37:18;;;;;;;33.97;20.67;;;4.30;99.90;;;;;;7346514;32;20103;-56
2023/12/06 10:41:21;;;;;;;30.30;21.53;;;4.20;99.90;;;;;;7346285;32;20126;-56
2023/12/06 10:45:23;;;;;;;30.83;20.33;;;4.20;99.90;;;;;;7346503;32;20280;-56
2023/12/06 10:49:28;;;;;;;30.88;20.88;;;4.30;99.90;;;;;;7349494;32;20245;-56
2023/12/06 10:53:31;;;;;;;29.20;20.35;;;4.40;99.90;;;;;;7342708;32;20217;-56
2023/12/06 10:57:33;;;;;;;26.73;19.02;;;4.50;99.90;;;;;;7343024;32;20382;-56
2023/12/06 11:01:35;;;;;;;28.55;20.12;;;4.50;99.90;;;;;;7343662;32;20601;-57
2023/12/06 11:05:42;;;;;;;30.52;20.20;;;4.60;99.90;;;;;;7342868;32;20507;-57
2023/12/06 11:09:49;;;;;;;28.00;19.85;;;4.60;99.90;;;;;;7343205;32;20131;-56
2023/12/06 11:14:19;;;;;;;27.05;19.27;;;4.60;99.90;;;;;;7348898;32;20230;-56
2023/12/06 11:18:26;;;;;;;24.63;18.23;;;4.60;99.90;;;;;;7343875;32;20496;-56
2023/12/06 11:22:29;;;;;;;28.25;17.75;;;4.70;99.90;;;;;;7344540;32;20160;-57
2023/12/06 11:26:31;;;;;;;27.25;17.90;;;4.50;99.90;;;;;;7349358;32;20095;-56
2023/12/06 11:30:47;;;;;;;25.37;17.30;;;4.70;99.90;;;;;;7337348;32;20095;-58
2023/12/06 11:34:56;;;;;;;26.50;16.07;;;4.60;99.90;;;;;;7350662;32;20104;-59
2023/12/06 11:39:00;;;;;;;25.88;16.67;;;4.60;99.90;;;;;;7342948;32;20098;-58
2023/12/06 11:43:02;;;;;;;27.10;16.90;;;4.50;99.90;;;;;;7345748;32;20281;-58
2023/12/06 11:47:08;;;;;;;26.92;16.92;;;4.50;99.90;;;;;;7345334;32;20107;-57
2023/12/06 11:51:21;;;;;;;23.33;16.42;;;4.50;99.90;;;;;;7346417;32;20115;-57
2023/12/06 11:55:24;;;;;;;22.92;16.60;;;4.50;99.90;;;;;;7340502;32;20228;-55
2023/12/06 11:59:26;;;;;;;30.20;18.83;;;4.50;99.90;;;;;;7335776;32;20210;-56
2023/12/06 12:03:30;;;;;;;29.50;18.70;;;4.60;99.90;;;;;;7343563;32;20541;-55
2023/12/06 12:07:33;;;;;;;28.65;19.02;;;4.60;99.90;;;;;;7344722;32;20190;-56
2023/12/06 12:11:35;;;;;;;26.60;17.60;;;4.70;99.90;;;;;;7344670;32;20158;-56
2023/12/06 12:15:37;;;;;;;24.60;17.30;;;4.80;99.90;;;;;;7341307;32;20535;-56
2023/12/06 12:19:42;;;;;;;24.85;17.45;;;4.80;99.90;;;;;;7346362;32;20095;-55
2023/12/06 12:23:46;;;;;;;28.25;17.85;;;4.80;99.90;;;;;;7347030;32;20193;-56
2023/12/06 12:27:48;;;;;;;27.45;18.10;;;4.80;99.90;;;;;;7345964;32;20221;-57
2023/12/06 12:31:52;;;;;;;30.35;19.08;;;5.00;99.90;;;;;;7339825;32;20103;-56
2023/12/06 12:35:56;;;;;;;25.15;17.42;;;5.10;99.90;;;;;;7346311;32;20194;-55
2023/12/06 12:39:58;;;;;;;28.83;17.77;;;5.10;99.90;;;;;;7340021;32;20095;-56
2023/12/06 12:44:00;;;;;;;27.55;17.77;;;5.10;99.90;;;;;;7346311;32;20655;-57
2023/12/06 12:48:03;;;;;;;28.20;17.58;;;5.30;99.90;;;;;;7349760;32;21197;-56
2023/12/06 12:52:07;;;;;;;24.70;15.80;;;5.30;99.90;;;;;;7346501;32;20162;-56
2023/12/06 12:56:13;;;;;;;22.30;16.37;;;5.40;99.90;;;;;;7346616;32;20187;-55
2023/12/06 13:00:22;;;;;;;24.60;16.25;;;5.30;99.90;;;;;;7347110;32;20173;-56
2023/12/06 13:04:26;;;;;;;25.27;15.98;;;5.50;99.90;;;;;;7344030;32;20130;-57
2023/12/06 13:08:30;;;;;;;22.50;15.27;;;5.60;99.90;;;;;;7346618;32;20202;-56
2023/12/06 13:12:31;;;;;;;21.65;14.85;;;5.70;99.90;;;;;;7342992;32;20649;-57
2023/12/06 13:16:33;;;;;;;22.00;13.80;;;5.90;99.90;;;;;;7344505;32;20686;-55
2023/12/06 13:20:35;;;;;;;21.35;12.90;;;5.90;99.90;;;;;;7341788;32;20206;-56
2023/12/06 13:24:38;;;;;;;22.48;13.05;;;5.90;99.90;;;;;;7353228;32;20490;-57
2023/12/06 13:28:40;;;;;;;22.65;14.10;;;5.70;99.90;;;;;;7344414;32;20100;-56
2023/12/06 13:32:42;;;;;;;20.48;13.00;;;5.70;99.90;;;;;;7344508;32;20118;-56
2023/12/06 13:36:43;;;;;;;17.83;12.45;;;5.70;99.90;;;;;;7347078;32;21353;-57
2023/12/06 13:40:45;;;;;;;17.00;10.20;;;5.70;99.90;;;;;;7346182;32;20198;-56
2023/12/06 13:44:47;;;;;;;18.48;11.45;;;5.60;99.90;;;;;;7357298;32;20117;-57
2023/12/06 13:48:49;;;;;;;16.35;11.05;;;5.60;99.90;;;;;;7346408;32;20114;-56
2023/12/06 13:52:51;;;;;;;16.75;11.23;;;5.40;99.90;;;;;;7342114;32;20142;-56
2023/12/06 13:56:53;;;;;;;21.27;11.63;;;5.30;99.90;;;;;;7346243;32;20483;-57
2023/12/06 14:00:54;;;;;;;20.15;11.82;;;5.30;99.90;;;;;;7353054;32;20234;-56
2023/12/06 14:04:56;;;;;;;18.65;11.55;;;5.40;99.90;;;;;;7348857;32;20121;-57
2023/12/06 14:08:59;;;;;;;17.98;11.20;;;5.40;99.90;;;;;;7342807;32;20482;-57
2023/12/06 14:13:00;;;;;;;17.17;11.70;;;5.40;99.90;;;;;;7346408;32;20123;-57
2023/12/06 14:17:03;;;;;;;19.62;11.00;;;5.40;99.90;;;;;;7348896;32;20174;-57
2023/12/06 14:21:04;;;;;;;21.85;11.95;;;5.40;99.90;;;;;;7347067;32;20458;-57
2023/12/06 14:25:08;;;;;;;19.77;10.88;;;5.40;99.90;;;;;;7345040;32;20100;-56
2023/12/06 14:29:10;;;;;;;20.17;11.15;;;5.30;99.90;;;;;;7346748;32;20175;-57
2023/12/06 14:33:12;;;;;;;18.17;10.77;;;5.30;99.90;;;;;;7349490;32;20118;-57
2023/12/06 14:37:14;;;;;;;18.70;10.25;;;5.30;99.90;;;;;;7348694;32;20130;-57
2023/12/06 14:41:20;;;;;;;16.48;10.40;;;5.30;99.90;;;;;;7345997;32;20256;-57
2023/12/06 14:45:22;;;;;;;17.80;10.30;;;5.30;99.90;;;;;;7340632;32;20103;-57
2023/12/06 14:49:23;;;;;;;14.30;9.75;;;5.20;99.90;;;;;;7338966;32;20115;-57
2023/12/06 14:53:25;;;;;;;15.63;10.02;;;5.20;99.90;;;;;;7349158;32;20594;-57
2023/12/06 14:57:27;;;;;;;17.33;9.80;;;5.20;99.90;;;;;;7347296;32;20546;-58
2023/12/06 15:01:34;;;;;;;15.07;10.50;;;5.10;99.90;;;;;;7349258;32;20130;-57
2023/12/06 15:05:36;;;;;;;19.95;11.15;;;5.10;99.90;;;;;;7345369;32;20103;-57
2023/12/06 15:09:38;;;;;;;15.60;10.15;;;5.10;99.90;;;;;;7348235;32;20241;-58
2023/12/06 15:13:39;;;;;;;15.07;10.32;;;5.00;99.90;;;;;;7348554;32;20156;-57
2023/12/06 15:17:42;;;;;;;15.30;9.45;;;4.90;99.90;;;;;;7345445;32;20170;-56
2023/12/06 15:21:44;;;;;;;18.55;10.52;;;4.90;99.90;;;;;;7341673;32;20513;-56
2023/12/06 15:25:46;;;;;;;16.87;9.95;;;4.80;99.90;;;;;;7344989;32;20250;-57
2023/12/06 15:29:47;;;;;;;16.30;10.48;;;4.80;99.90;;;;;;7339571;32;20099;-58
2023/12/06 15:33:49;;;;;;;16.08;10.23;;;4.80;99.90;;;;;;7349336;32;20163;-57
2023/12/06 15:37:51;;;;;;;18.12;11.00;;;4.70;99.90;;;;;;7351526;32;21203;-55
2023/12/06 15:41:53;;;;;;;21.17;11.15;;;4.60;99.90;;;;;;7350476;32;20192;-55
2023/12/06 15:45:58;;;;;;;18.05;11.60;;;4.60;99.90;;;;;;7345525;32;20107;-55
2023/12/06 15:50:02;;;;;;;18.63;11.53;;;4.60;99.90;;;;;;7347118;32;20851;-56
2023/12/06 15:54:04;;;;;;;19.00;11.07;;;4.60;99.90;;;;;;7345879;32;20549;-55
2023/12/06 15:58:06;;;;;;;15.30;10.68;;;4.60;99.90;;;;;;7348093;32;20574;-54
2023/12/06 16:02:07;;;;;;;18.30;11.12;;;4.60;99.90;;;;;;7335178;32;20121;-55
2023/12/06 16:06:09;;;;;;;20.17;11.23;;;4.60;99.90;;;;;;7346075;32;20096;-55
2023/12/06 16:10:11;;;;;;;16.85;10.30;;;4.60;99.90;;;;;;7346130;32;20127;-55
2023/12/06 16:14:13;;;;;;;18.80;10.55;;;4.50;99.90;;;;;;7348740;32;20406;-55
2023/12/06 16:18:15;;;;;;;19.98;11.75;;;4.50;99.90;;;;;;7344719;32;20765;-63
2023/12/06 16:22:17;;;;;;;14.93;10.48;;;4.40;99.90;;;;;;7351870;32;20100;-63
2023/12/06 16:26:18;;;;;;;16.27;11.35;;;4.40;99.90;;;;;;7351327;32;20124;-55
2023/12/06 16:30:20;;;;;;;20.30;12.95;;;4.50;99.90;;;;;;7347786;32;20350;-56
2023/12/06 16:34:23;;;;;;;19.40;12.82;;;4.60;99.90;;;;;;7347360;32;20801;-55
2023/12/06 16:38:25;;;;;;;21.65;13.70;;;4.60;99.90;;;;;;7350154;32;20123;-56
2023/12/06 16:42:28;;;;;;;16.23;12.07;;;4.60;99.90;;;;;;7351574;32;20095;-56
2023/12/06 16:46:30;;;;;;;17.42;11.95;;;4.60;99.90;;;;;;7348044;32;20499;-56
2023/12/06 16:50:33;;;;;;;21.80;12.13;;;4.60;99.90;;;;;;7349078;32;20326;-56
2023/12/06 16:54:35;;;;;;;18.80;11.27;;;4.60;99.90;;;;;;7348653;32;20557;-56
2023/12/06 16:58:37;;;;;;;17.45;11.00;;;4.40;99.90;;;;;;7350711;32;20099;-56
2023/12/06 17:02:40;;;;;;;20.92;11.45;;;4.50;99.90;;;;;;7348856;32;20279;-54
2023/12/06 17:06:41;;;;;;;16.30;10.98;;;4.40;99.90;;;;;;7347027;32;20794;-55
2023/12/06 17:10:43;;;;;;;17.42;11.15;;;4.30;99.90;;;;;;7343698;32;20170;-55
2023/12/06 17:14:46;;;;;;;22.20;10.88;;;4.20;99.90;;;;;;7348540;32;20194;-56
2023/12/06 17:18:48;;;;;;;14.93;9.55;;;4.10;99.90;;;;;;7346402;32;20103;-56
2023/12/06 17:22:50;;;;;;;14.95;10.13;;;4.00;99.90;;;;;;7348749;32;20183;-56
2023/12/06 17:26:53;;;;;;;14.95;9.93;;;3.90;99.90;;;;;;7348824;32;20166;-55
2023/12/06 17:30:55;;;;;;;13.38;9.07;;;3.70;99.90;;;;;;7350691;32;20127;-56
2023/12/06 17:34:57;;;;;;;14.70;9.48;;;3.60;99.90;;;;;;7348450;32;20174;-55
2023/12/06 17:38:58;;;;;;;13.15;9.23;;;3.40;99.90;;;;;;7343947;32;20524;-55
2023/12/06 17:43:00;;;;;;;13.07;8.32;;;3.30;99.90;;;;;;7349942;32;20111;-55
2023/12/06 17:47:02;;;;;;;11.85;8.18;;;3.20;99.90;;;;;;7345768;32;20201;-55
2023/12/06 17:51:04;;;;;;;17.08;9.20;;;3.10;99.90;;;;;;7350814;32;20567;-55
2023/12/06 17:55:06;;;;;;;15.18;8.68;;;3.00;99.90;;;;;;7347538;32;20226;-55
2023/12/06 17:59:08;;;;;;;15.93;8.55;;;2.90;99.90;;;;;;7341903;32;20193;-55
2023/12/06 18:03:09;;;;;;;15.38;8.88;;;2.90;99.90;;;;;;7346753;32;20140;-57
2023/12/06 18:07:11;;;;;;;11.75;8.38;;;2.90;99.90;;;;;;7350898;32;20172;-58
2023/12/06 18:11:13;;;;;;;13.00;8.18;;;2.80;99.90;;;;;;7348153;32;20486;-56
2023/12/06 18:15:15;;;;;;;14.60;8.20;;;2.70;99.90;;;;;;7351734;32;20180;-56
2023/12/06 18:19:17;;;;;;;11.52;8.65;;;2.60;99.90;;;;;;7350100;32;20470;-56
2023/12/06 18:23:19;;;;;;;14.02;9.27;;;2.50;99.90;;;;;;7351350;32;20111;-56
2023/12/06 18:27:21;;;;;;;13.77;8.45;;;2.50;99.90;;;;;;7350097;32;20187;-56
2023/12/06 18:31:23;;;;;;;14.32;9.10;;;2.50;99.90;;;;;;7342802;32;20307;-56
2023/12/06 18:35:25;;;;;;;13.38;8.98;;;2.50;99.90;;;;;;7335489;32;20536;-56
2023/12/06 18:39:27;;;;;;;11.50;8.85;;;2.50;99.90;;;;;;7346244;32;20095;-57
2023/12/06 18:43:29;;;;;;;12.32;8.02;;;2.50;99.90;;;;;;7345923;32;20099;-56
2023/12/06 18:47:31;;;;;;;10.65;8.07;;;2.60;99.90;;;;;;7317869;32;20228;-55
2023/12/06 18:51:32;;;;;;;11.10;7.68;;;2.60;99.90;;;;;;7342183;32;20244;-57
2023/12/06 18:55:34;;;;;;;13.40;8.80;;;2.50;99.90;;;;;;7340547;32;20293;-56
2023/12/06 18:59:37;;;;;;;12.30;8.00;;;2.40;99.90;;;;;;7347230;32;20884;-56
2023/12/06 19:03:39;;;;;;;10.35;7.57;;;2.20;99.90;;;;;;7347272;32;20119;-55
2023/12/06 19:07:41;;;;;;;14.77;8.05;;;2.10;99.90;;;;;;7343453;32;20117;-55
2023/12/06 19:11:43;;;;;;;14.85;8.40;;;2.00;99.90;;;;;;7342815;32;20617;-56
2023/12/06 19:15:45;;;;;;;12.68;8.18;;;1.80;99.90;;;;;;7342047;32;20475;-56
2023/12/06 19:19:47;;;;;;;11.93;8.00;;;1.70;99.90;;;;;;7341753;32;20115;-56
2023/12/06 19:23:49;;;;;;;11.20;7.85;;;1.60;99.90;;;;;;7345747;32;20129;-56
2023/12/06 19:27:51;;;;;;;13.60;8.75;;;1.60;99.90;;;;;;7346345;32;20152;-56
2023/12/06 19:31:53;;;;;;;12.35;8.25;;;1.40;99.90;;;;;;7342707;32;20895;-56
2023/12/06 19:35:55;;;;;;;12.07;7.72;;;1.30;99.90;;;;;;7343298;32;20168;-57
2023/12/06 19:39:57;;;;;;;13.70;8.32;;;1.20;99.90;;;;;;7346449;32;20315;-56
2023/12/06 19:43:59;;;;;;;13.55;9.00;;;1.10;99.90;;;;;;7343079;32;20106;-57
2023/12/06 19:48:01;;;;;;;12.18;8.57;;;1.00;99.90;;;;;;7344782;32;20102;-57
2023/12/06 19:52:03;;;;;;;12.60;8.18;;;1.00;99.90;;;;;;7344401;32;20193;-57
2023/12/06 19:56:06;;;;;;;12.37;8.65;;;0.90;99.90;;;;;;7348928;32;20234;-57
2023/12/06 20:00:10;;;;;;;13.45;8.30;;;0.80;99.90;;;;;;7348833;32;20227;-56
2023/12/06 20:04:12;;;;;;;11.18;7.97;;;0.80;99.90;;;;;;7352972;32;20103;-57
2023/12/06 20:08:14;;;;;;;13.70;8.27;;;0.70;99.90;;;;;;7351480;32;20120;-55
2023/12/06 20:12:16;;;;;;;14.15;8.57;;;0.60;99.90;;;;;;7347953;32;20212;-57
2023/12/06 20:16:22;;;;;;;11.43;7.57;;;0.60;99.90;;;;;;7337003;32;20221;-56
2023/12/06 20:20:24;;;;;;;13.35;8.32;;;0.60;99.90;;;;;;7349629;32;20257;-57
2023/12/06 20:24:26;;;;;;;13.38;8.88;;;0.60;99.90;;;;;;7348604;32;20190;-56
2023/12/06 20:28:28;;;;;;;14.70;10.32;;;0.60;99.90;;;;;;7349911;32;20265;-56
2023/12/06 20:32:31;;;;;;;13.00;9.05;;;0.60;99.90;;;;;;7349632;32;20191;-56
2023/12/06 20:36:33;;;;;;;14.43;10.13;;;0.50;99.90;;;;;;7344372;32;20186;-55
2023/12/06 20:40:34;;;;;;;14.15;9.07;;;0.40;99.90;;;;;;7352656;32;20153;-58
2023/12/06 20:44:37;;;;;;;16.35;9.50;;;0.30;99.90;;;;;;7351348;32;20210;-58
2023/12/06 20:48:39;;;;;;;16.12;9.55;;;0.30;99.90;;;;;;7349326;32;20551;-56